createdAt,value
2018-01-04T00:00:19.468Z,79.90
2018-01-04T00:02:46.979Z,80.35
2018-01-04T00:05:14.522Z,81.05
2018-01-04T00:07:42.036Z,81.86
2018-01-04T00:10:09.597Z,82.41
2018-01-04T00:12:37.145Z,82.29
2018-01-04T00:15:04.662Z,82.43
2018-01-04T00:17:32.263Z,82.76
2018-01-04T00:19:59.768Z,83.00
2018-01-04T00:22:27.306Z,83.31
2018-01-04T00:24:54.841Z,83.45
2018-01-04T00:27:22.388Z,83.27
2018-01-04T00:29:49.897Z,83.19
2018-01-04T00:32:17.418Z,82.52
2018-01-04T00:34:44.926Z,82.82
2018-01-04T00:37:12.546Z,82.47
2018-01-04T00:39:40.088Z,83.39
2018-01-04T00:42:08.254Z,83.68
2018-01-04T00:44:35.847Z,83.94
2018-01-04T00:47:03.369Z,84.81
2018-01-04T00:49:30.944Z,84.88
2018-01-04T00:51:58.474Z,85.31
2018-01-04T00:54:26.009Z,85.37
2018-01-04T00:56:53.542Z,85.01
2018-01-04T00:59:21.079Z,84.97
2018-01-04T01:01:48.621Z,85.07
2018-01-04T01:04:16.205Z,84.71
2018-01-04T01:06:43.711Z,85.21
2018-01-04T01:09:11.237Z,85.42
2018-01-04T01:11:38.756Z,85.42
2018-01-04T01:14:06.316Z,85.39
2018-01-04T01:16:33.838Z,85.53
2018-01-04T01:19:01.369Z,86.04
2018-01-04T01:21:28.878Z,85.52
2018-01-04T01:23:56.418Z,85.21
2018-01-04T01:26:23.929Z,85.20
2018-01-04T01:28:51.433Z,85.24
2018-01-04T01:31:18.935Z,85.34
2018-01-04T01:33:46.454Z,84.61
2018-01-04T01:36:14.087Z,83.99
2018-01-04T01:38:41.598Z,83.43
2018-01-04T01:41:09.126Z,82.87
2018-01-04T01:43:36.637Z,82.76
2018-01-04T01:46:04.225Z,82.15
2018-01-04T01:48:31.733Z,82.07
2018-01-04T01:50:59.266Z,82.21
2018-01-04T01:53:26.771Z,82.12
2018-01-04T01:55:54.361Z,82.44
2018-01-04T01:58:21.872Z,81.90
2018-01-04T02:00:49.397Z,81.69
2018-01-04T02:03:16.905Z,81.75
2018-01-04T02:05:44.497Z,81.90
2018-01-04T02:08:12.061Z,81.71
2018-01-04T02:10:39.582Z,81.81
2018-01-04T02:13:07.177Z,81.59
2018-01-04T02:15:34.720Z,81.70
2018-01-04T02:18:14.183Z,81.81
2018-01-04T02:20:53.737Z,81.67
2018-01-04T02:23:33.270Z,82.05
2018-01-04T02:26:00.783Z,82.45
2018-01-04T02:28:40.260Z,82.92
2018-01-04T02:31:19.651Z,83.72
2018-01-04T02:33:59.034Z,84.38
2018-01-04T02:36:38.471Z,84.35
2018-01-04T02:42:33.300Z,84.79
2018-01-04T02:45:12.650Z,84.93
2018-01-04T02:47:40.177Z,84.94
2018-01-04T02:50:07.706Z,84.73
2018-01-04T02:52:35.229Z,84.83
2018-01-04T02:55:02.732Z,84.77
2018-01-04T02:57:30.250Z,84.13
2018-01-04T02:59:57.761Z,83.92
2018-01-04T03:02:25.261Z,83.98
2018-01-04T03:04:52.897Z,83.66
2018-01-04T03:07:20.401Z,83.53
2018-01-04T03:09:48.021Z,83.53
2018-01-04T03:12:15.578Z,83.78
2018-01-04T03:14:43.140Z,83.29
2018-01-04T03:17:10.655Z,83.45
2018-01-04T03:19:38.177Z,83.38
2018-01-04T03:22:11.290Z,83.38
2018-01-04T03:24:44.439Z,83.43
2018-01-04T03:27:17.545Z,82.84
2018-01-04T03:32:52.450Z,83.02
2018-01-04T03:35:25.560Z,82.95
2018-01-04T03:37:58.694Z,82.49
2018-01-04T03:40:31.944Z,82.60
2018-01-04T03:43:05.005Z,82.34
2018-01-04T03:45:38.063Z,82.90
2018-01-04T03:48:11.139Z,83.18
2018-01-04T03:50:44.411Z,83.20
2018-01-04T03:53:17.537Z,83.35
2018-01-04T03:55:50.657Z,83.27
2018-01-04T03:58:18.193Z,83.20
2018-01-04T04:00:51.240Z,83.02
2018-01-04T04:03:18.800Z,83.29
2018-01-04T04:05:52.020Z,82.84
2018-01-04T04:08:25.258Z,82.01
2018-01-04T04:10:52.837Z,82.37
2018-01-04T04:13:20.333Z,82.11
2018-01-04T04:15:47.881Z,82.05
2018-01-04T04:18:15.426Z,81.75
2018-01-04T04:20:42.984Z,81.62
2018-01-04T04:23:10.507Z,81.58
2018-01-04T04:25:38.048Z,81.98
2018-01-04T04:28:05.567Z,81.93
2018-01-04T04:30:33.073Z,82.17
2018-01-04T04:33:00.589Z,82.67
2018-01-04T04:35:28.097Z,82.96
2018-01-04T04:37:55.613Z,83.47
2018-01-04T04:40:23.158Z,83.19
2018-01-04T04:42:50.678Z,83.39
2018-01-04T04:45:18.202Z,83.66
2018-01-04T04:47:45.722Z,83.45
2018-01-04T04:50:13.220Z,83.47
2018-01-04T04:52:40.748Z,83.55
2018-01-04T04:55:08.251Z,83.17
2018-01-04T04:57:35.864Z,82.99
2018-01-04T05:00:03.375Z,83.37
2018-01-04T05:02:30.905Z,83.05
2018-01-04T05:04:58.412Z,82.50
2018-01-04T05:07:25.943Z,82.88
2018-01-04T05:09:53.453Z,83.09
2018-01-04T05:12:20.954Z,82.89
2018-01-04T05:14:48.474Z,82.88
2018-01-04T05:17:15.984Z,82.99
2018-01-04T05:19:43.508Z,83.19
2018-01-04T05:22:11.020Z,83.32
2018-01-04T05:24:38.568Z,83.56
2018-01-04T05:27:06.086Z,83.83
2018-01-04T05:29:33.600Z,83.60
2018-01-04T05:32:01.213Z,84.26
2018-01-04T05:34:28.732Z,84.62
2018-01-04T05:36:56.236Z,85.27
2018-01-04T05:39:23.749Z,86.05
2018-01-04T05:41:51.253Z,86.33
2018-01-04T05:44:18.761Z,86.86
2018-01-04T05:46:46.277Z,86.93
2018-01-04T05:49:13.785Z,87.25
2018-01-04T05:51:41.291Z,86.90
2018-01-04T05:54:08.831Z,87.66
2018-01-04T05:56:36.334Z,87.32
2018-01-04T05:59:03.852Z,87.41
2018-01-04T06:01:31.410Z,87.54
2018-01-04T06:03:58.917Z,87.57
2018-01-04T06:06:26.433Z,87.50
2018-01-04T06:08:53.954Z,86.56
2018-01-04T06:11:21.461Z,86.32
2018-01-04T06:13:48.970Z,86.15
2018-01-04T06:16:16.570Z,85.65
2018-01-04T06:18:44.078Z,85.83
2018-01-04T06:21:11.691Z,85.90
2018-01-04T06:23:39.206Z,85.55
2018-01-04T06:26:06.713Z,85.63
2018-01-04T06:28:34.219Z,85.40
2018-01-04T06:31:01.745Z,85.68
2018-01-04T06:33:29.273Z,85.57
2018-01-04T06:35:56.792Z,85.85
2018-01-04T06:38:24.328Z,85.89
2018-01-04T06:40:51.852Z,85.84
2018-01-04T06:43:19.357Z,85.73
2018-01-04T06:45:46.876Z,86.06
2018-01-04T06:48:14.385Z,86.12
2018-01-04T06:50:41.929Z,86.43
2018-01-04T06:53:09.457Z,86.40
2018-01-04T06:55:37.017Z,86.70
2018-01-04T06:58:04.578Z,86.64
2018-01-04T07:00:32.118Z,86.61
2018-01-04T07:02:59.693Z,86.78
2018-01-04T07:05:27.213Z,86.50
2018-01-04T07:07:54.730Z,86.37
2018-01-04T07:10:22.246Z,86.65
2018-01-04T07:12:49.808Z,86.59
2018-01-04T07:15:17.326Z,86.46
2018-01-04T07:17:44.838Z,86.61
2018-01-04T07:20:12.358Z,86.37
2018-01-04T07:22:39.960Z,86.45
2018-01-04T07:25:07.535Z,86.00
2018-01-04T07:27:35.094Z,86.08
2018-01-04T07:30:02.608Z,86.33
2018-01-04T07:32:30.124Z,86.69
2018-01-04T07:34:57.629Z,87.06
2018-01-04T07:37:25.138Z,87.32
2018-01-04T07:39:52.673Z,87.16
2018-01-04T07:42:20.176Z,87.35
2018-01-04T07:44:47.694Z,87.62
2018-01-04T07:47:15.232Z,87.54
2018-01-04T07:49:42.739Z,87.70
2018-01-04T07:52:10.249Z,87.68
2018-01-04T07:54:37.769Z,87.63
2018-01-04T07:57:05.287Z,87.64
2018-01-04T07:59:32.797Z,87.27
2018-01-04T08:02:00.304Z,87.27
2018-01-04T08:04:27.813Z,87.07
2018-01-04T08:06:55.334Z,86.85
2018-01-04T08:09:22.850Z,86.78
2018-01-04T08:11:50.426Z,86.61
2018-01-04T08:14:17.950Z,86.17
2018-01-04T08:16:45.572Z,85.87
2018-01-04T08:19:13.077Z,85.88
2018-01-04T08:21:40.590Z,85.63
2018-01-04T08:24:08.101Z,85.60
2018-01-04T08:26:35.707Z,85.41
2018-01-04T08:29:03.226Z,85.39
2018-01-04T08:31:30.734Z,85.14
2018-01-04T08:33:58.253Z,84.93
2018-01-04T08:36:25.774Z,85.16
2018-01-04T08:38:53.293Z,84.99
2018-01-04T08:41:20.802Z,84.98
2018-01-04T08:43:48.317Z,84.88
2018-01-04T08:46:15.888Z,84.78
2018-01-04T08:48:43.407Z,84.53
2018-01-04T08:51:10.923Z,84.43
2018-01-04T08:53:38.435Z,84.92
2018-01-04T08:56:05.984Z,85.45
2018-01-04T08:58:33.518Z,84.85
2018-01-04T09:01:01.028Z,84.51
2018-01-04T09:03:28.538Z,84.28
2018-01-04T09:05:56.050Z,83.65
2018-01-04T09:08:23.608Z,83.69
2018-01-04T09:10:51.138Z,83.47
2018-01-04T09:13:18.654Z,82.82
2018-01-04T09:15:46.185Z,83.15
2018-01-04T09:18:13.697Z,83.12
2018-01-04T09:20:41.302Z,83.33
2018-01-04T09:23:08.878Z,83.20
2018-01-04T09:25:36.394Z,83.00
2018-01-04T09:28:03.912Z,82.40
2018-01-04T09:30:31.456Z,82.26
2018-01-04T09:32:58.974Z,82.68
2018-01-04T09:35:26.504Z,82.81
2018-01-04T09:37:54.020Z,82.53
2018-01-04T09:40:21.592Z,82.63
2018-01-04T09:42:49.106Z,82.40
2018-01-04T09:45:16.642Z,82.28
2018-01-04T09:47:44.145Z,82.10
2018-01-04T09:50:11.654Z,81.89
2018-01-04T09:52:39.184Z,81.62
2018-01-04T09:55:06.701Z,81.59
2018-01-04T09:57:34.231Z,81.60
2018-01-04T10:00:01.745Z,81.28
2018-01-04T10:02:29.314Z,81.11
2018-01-04T10:04:57.570Z,80.65
2018-01-04T10:07:25.122Z,79.94
2018-01-04T10:09:52.646Z,81.96
2018-01-04T10:12:20.161Z,81.64
2018-01-04T10:14:47.669Z,81.42
2018-01-04T10:17:17.331Z,80.20
2018-01-04T10:19:44.923Z,79.95
2018-01-04T10:22:12.678Z,79.41
2018-01-04T10:24:40.870Z,79.92
2018-01-04T10:27:08.725Z,79.90
2018-01-04T10:29:36.300Z,79.95
2018-01-04T10:32:03.933Z,79.07
2018-01-04T10:34:31.501Z,78.52
2018-01-04T10:36:59.016Z,78.21
2018-01-04T10:39:26.525Z,78.26
2018-01-04T10:41:54.032Z,78.89
2018-01-04T10:44:21.556Z,78.69
2018-01-04T10:46:49.075Z,77.21
2018-01-04T10:49:16.601Z,78.22
2018-01-04T10:51:44.133Z,77.23
2018-01-04T10:54:11.637Z,77.30
2018-01-04T10:56:39.226Z,77.06
2018-01-04T10:59:06.793Z,77.75
2018-01-04T11:01:34.891Z,77.13
2018-01-04T11:04:03.165Z,77.22
2018-01-04T11:06:30.754Z,76.98
2018-01-04T11:08:58.893Z,76.93
2018-01-04T11:11:26.450Z,77.57
2018-01-04T11:13:54.044Z,76.96
2018-01-04T11:16:21.611Z,77.14
2018-01-04T11:18:49.235Z,77.04
2018-01-04T11:21:16.839Z,76.95
2018-01-04T11:23:44.395Z,77.16
2018-01-04T11:26:11.950Z,76.97
2018-01-04T11:28:39.541Z,76.56
2018-01-04T11:31:07.118Z,76.57
2018-01-04T11:33:34.689Z,75.57
2018-01-04T11:36:02.391Z,75.67
2018-01-04T11:38:29.980Z,75.28
2018-01-04T11:40:57.521Z,74.37
2018-01-04T11:43:25.088Z,75.37
2018-01-04T11:45:52.630Z,75.06
2018-01-04T11:48:20.206Z,74.79
2018-01-04T11:50:47.790Z,75.53
2018-01-04T11:53:15.312Z,74.63
2018-01-04T11:55:42.881Z,75.42
2018-01-04T11:58:10.409Z,74.58
2018-01-04T12:00:37.996Z,74.62
2018-01-04T12:05:33.267Z,75.31
2018-01-04T12:08:00.875Z,75.03
2018-01-04T12:10:28.439Z,75.34
2018-01-04T12:12:56.008Z,75.48
2018-01-04T12:15:23.548Z,74.45
2018-01-04T12:17:51.112Z,74.59
2018-01-04T12:20:18.700Z,74.93
2018-01-04T12:22:46.251Z,75.42
2018-01-04T12:25:13.916Z,74.52
2018-01-04T12:27:42.086Z,75.10
2018-01-04T12:30:09.727Z,74.78
2018-01-04T12:32:37.356Z,75.05
2018-01-04T12:35:04.980Z,75.36
2018-01-04T12:37:32.545Z,74.97
2018-01-04T12:40:00.100Z,75.25
2018-01-04T12:42:27.666Z,76.41
2018-01-04T12:44:55.448Z,75.52
2018-01-04T12:47:23.033Z,75.81
2018-01-04T12:49:50.581Z,76.79
2018-01-04T12:52:18.138Z,78.27
2018-01-04T12:54:45.704Z,78.91
2018-01-04T12:57:13.256Z,79.62
2018-01-04T12:59:40.854Z,80.65
2018-01-04T13:02:08.990Z,79.61
2018-01-04T13:04:36.567Z,80.62
2018-01-04T13:07:04.111Z,80.28
2018-01-04T13:09:31.811Z,79.89
2018-01-04T13:11:59.328Z,79.57
2018-01-04T13:14:26.856Z,79.14
2018-01-04T13:16:54.373Z,79.79
2018-01-04T13:19:21.888Z,79.96
2018-01-04T13:21:49.402Z,79.01
2018-01-04T13:24:16.925Z,79.80
2018-01-04T13:26:44.440Z,79.94
2018-01-04T13:29:11.950Z,80.48
2018-01-04T13:31:39.457Z,80.07
2018-01-04T13:34:06.985Z,80.18
2018-01-04T13:36:34.492Z,79.47
2018-01-04T13:39:02.087Z,79.52
2018-01-04T13:41:29.595Z,80.20
2018-01-04T13:43:57.117Z,79.90
2018-01-04T13:46:24.626Z,80.06
2018-01-04T13:48:52.141Z,79.81
2018-01-04T13:51:19.648Z,79.67
2018-01-04T13:53:47.157Z,79.41
2018-01-04T13:56:14.794Z,79.21
2018-01-04T13:58:42.310Z,79.46
2018-01-04T14:01:09.880Z,79.64
2018-01-04T14:03:37.474Z,79.55
2018-01-04T14:06:04.987Z,79.40
2018-01-04T14:08:32.500Z,79.39
2018-01-04T14:11:00.019Z,79.12
2018-01-04T14:13:27.559Z,79.46
2018-01-04T14:15:55.074Z,79.38
2018-01-04T14:18:22.624Z,79.92
2018-01-04T14:20:50.138Z,80.69
2018-01-04T14:23:17.654Z,79.74
2018-01-04T14:25:45.166Z,80.11
2018-01-04T14:28:12.698Z,80.31
2018-01-04T14:30:40.216Z,80.13
2018-01-04T14:33:07.736Z,80.44
2018-01-04T14:35:35.343Z,80.48
2018-01-04T14:38:02.853Z,80.74
2018-01-04T14:40:30.470Z,80.78
2018-01-04T14:42:57.982Z,80.86
2018-01-04T14:45:25.527Z,80.83
2018-01-04T14:47:53.201Z,80.95
2018-01-04T14:50:20.733Z,81.21
2018-01-04T14:52:48.317Z,81.22
2018-01-04T14:55:15.843Z,80.88
2018-01-04T14:57:43.354Z,81.01
2018-01-04T15:00:10.885Z,80.98
2018-01-04T15:02:38.390Z,81.03
2018-01-04T15:05:05.910Z,81.11
2018-01-04T15:07:33.449Z,81.13
2018-01-04T15:10:00.961Z,81.19
2018-01-04T15:12:28.464Z,81.26
2018-01-04T15:14:55.974Z,81.30
2018-01-04T15:17:23.540Z,81.53
2018-01-04T15:19:51.101Z,81.79
2018-01-04T15:22:18.673Z,82.00
2018-01-04T15:24:46.226Z,82.55
2018-01-04T15:27:13.785Z,82.10
2018-01-04T15:29:41.293Z,82.17
2018-01-04T15:32:08.817Z,82.05
2018-01-04T15:34:36.348Z,82.16
2018-01-04T15:37:03.866Z,82.29
2018-01-04T15:39:31.479Z,82.33
2018-01-04T15:41:58.989Z,82.42
2018-01-04T15:44:26.610Z,82.87
2018-01-04T15:46:54.113Z,83.00
2018-01-04T15:49:21.721Z,83.68
2018-01-04T15:51:49.229Z,83.59
2018-01-04T15:54:16.836Z,83.91
2018-01-04T15:56:44.365Z,84.43
2018-01-04T15:59:11.878Z,84.58
2018-01-04T16:01:39.394Z,84.34
2018-01-04T16:04:06.978Z,84.59
2018-01-04T16:06:34.490Z,84.62
2018-01-04T16:09:02.107Z,84.42
2018-01-04T16:11:29.627Z,84.51
2018-01-04T16:13:57.168Z,84.28
2018-01-04T16:16:24.787Z,84.42
2018-01-04T16:18:52.307Z,84.65
2018-01-04T16:21:19.838Z,84.49
2018-01-04T16:23:47.354Z,84.36
2018-01-04T16:26:14.882Z,84.35
2018-01-04T16:28:42.397Z,84.28
2018-01-04T16:31:09.905Z,83.96
2018-01-04T16:33:37.427Z,84.05
2018-01-04T16:36:04.953Z,83.83
2018-01-04T16:38:32.467Z,83.61
2018-01-04T16:40:59.977Z,83.70
2018-01-04T16:43:27.483Z,83.66
2018-01-04T16:45:54.989Z,83.80
2018-01-04T16:48:22.501Z,84.00
2018-01-04T16:50:50.014Z,83.90
2018-01-04T16:53:17.577Z,84.19
2018-01-04T16:55:45.091Z,84.09
2018-01-04T16:58:12.643Z,83.84
2018-01-04T17:00:40.197Z,83.98
2018-01-04T17:03:07.710Z,83.83
2018-01-04T17:05:35.270Z,83.88
2018-01-04T17:08:02.785Z,83.74
2018-01-04T17:10:30.318Z,84.00
2018-01-04T17:12:57.843Z,84.18
2018-01-04T17:15:25.361Z,84.08
2018-01-04T17:17:52.875Z,83.95
2018-01-04T17:20:20.396Z,83.98
2018-01-04T17:22:47.909Z,84.07
2018-01-04T17:25:15.550Z,83.99
2018-01-04T17:27:43.067Z,83.68
2018-01-04T17:30:10.573Z,83.80
2018-01-04T17:32:38.117Z,83.48
2018-01-04T17:35:05.688Z,83.38
2018-01-04T17:37:33.237Z,83.35
2018-01-04T17:40:00.797Z,83.56
2018-01-04T17:42:28.326Z,83.42
2018-01-04T17:44:55.849Z,82.99
2018-01-04T17:47:23.359Z,83.08
2018-01-04T17:49:50.873Z,82.87
2018-01-04T17:52:18.405Z,82.64
2018-01-04T17:54:45.909Z,82.42
2018-01-04T17:57:13.421Z,82.76
2018-01-04T17:59:40.929Z,82.40
2018-01-04T18:02:08.457Z,82.59
2018-01-04T18:04:35.998Z,82.34
2018-01-04T18:07:03.505Z,82.13
2018-01-04T18:09:31.100Z,82.35
2018-01-04T18:11:58.613Z,82.54
2018-01-04T18:14:26.121Z,82.15
2018-01-04T18:16:53.682Z,82.03
2018-01-04T18:19:21.191Z,81.88
2018-01-04T18:21:48.711Z,81.87
2018-01-04T18:24:16.226Z,81.72
2018-01-04T18:26:43.747Z,81.92
2018-01-04T18:29:11.262Z,81.67
2018-01-04T18:31:38.786Z,82.03
2018-01-04T18:34:06.304Z,81.96
2018-01-04T18:36:33.817Z,82.13
2018-01-04T18:39:01.339Z,81.92
2018-01-04T18:41:28.854Z,81.73
2018-01-04T18:43:56.410Z,82.17
2018-01-04T18:46:23.989Z,81.62
2018-01-04T18:48:51.575Z,81.42
2018-01-04T18:51:19.087Z,81.43
2018-01-04T18:53:46.609Z,81.59
2018-01-04T18:56:14.245Z,81.20
2018-01-04T18:58:41.817Z,81.46
2018-01-04T19:01:09.355Z,81.36
2018-01-04T19:03:36.860Z,81.32
2018-01-04T19:06:04.366Z,81.48
2018-01-04T19:08:31.873Z,81.29
2018-01-04T19:10:59.380Z,81.55
2018-01-04T19:13:26.920Z,81.16
2018-01-04T19:15:54.508Z,81.45
2018-01-04T19:18:22.137Z,81.35
2018-01-04T19:20:49.674Z,81.29
2018-01-04T19:23:17.380Z,81.57
2018-01-04T19:25:44.900Z,81.55
2018-01-04T19:28:12.449Z,81.31
2018-01-04T19:30:40.009Z,81.39
2018-01-04T19:33:07.531Z,81.28
2018-01-04T19:35:35.062Z,81.08
2018-01-04T19:38:02.569Z,81.79
2018-01-04T19:40:30.082Z,81.22
2018-01-04T19:42:57.611Z,81.04
2018-01-04T19:45:25.124Z,81.38
2018-01-04T19:47:52.646Z,81.47
2018-01-04T19:50:20.149Z,81.73
2018-01-04T19:52:47.652Z,81.79
2018-01-04T19:55:15.168Z,82.31
2018-01-04T19:57:42.677Z,82.38
2018-01-04T20:00:10.215Z,82.71
2018-01-04T20:02:37.739Z,82.81
2018-01-04T20:05:05.265Z,82.75
2018-01-04T20:07:32.782Z,82.86
2018-01-04T20:10:00.288Z,82.91
2018-01-04T20:12:27.805Z,83.08
2018-01-04T20:14:55.315Z,83.32
2018-01-04T20:17:22.826Z,83.57
2018-01-04T20:19:50.347Z,83.71
2018-01-04T20:22:17.859Z,83.86
2018-01-04T20:24:45.368Z,83.75
2018-01-04T20:27:12.886Z,84.29
2018-01-04T20:29:40.390Z,84.40
2018-01-04T20:32:07.902Z,84.53
2018-01-04T20:34:35.410Z,84.53
2018-01-04T20:37:02.923Z,84.76
2018-01-04T20:39:30.439Z,84.72
2018-01-04T20:41:58.000Z,84.87
2018-01-04T20:44:25.521Z,84.96
2018-01-04T20:46:53.029Z,84.84
2018-01-04T20:49:20.533Z,84.93
2018-01-04T20:51:48.048Z,85.02
2018-01-04T20:54:15.579Z,85.69
2018-01-04T20:56:43.095Z,86.08
2018-01-04T20:59:10.612Z,86.02
2018-01-04T21:01:38.138Z,86.26
2018-01-04T21:04:05.656Z,86.73
2018-01-04T21:06:33.152Z,87.38
2018-01-04T21:09:00.656Z,87.67
2018-01-04T21:11:28.179Z,87.88
2018-01-04T21:13:55.684Z,88.05
2018-01-04T21:16:23.202Z,88.71
2018-01-04T21:18:50.713Z,89.13
2018-01-04T21:21:18.230Z,89.28
2018-01-04T21:23:45.742Z,89.75
2018-01-04T21:26:13.249Z,89.46
2018-01-04T21:28:40.778Z,89.74
2018-01-04T21:31:08.335Z,89.71
2018-01-04T21:33:35.852Z,89.97
2018-01-04T21:36:03.363Z,90.04
2018-01-04T21:38:30.874Z,90.33
2018-01-04T21:40:58.386Z,90.26
2018-01-04T21:43:25.903Z,89.92
2018-01-04T21:45:53.431Z,90.07
2018-01-04T21:48:20.945Z,89.72
2018-01-04T21:50:48.459Z,90.07
2018-01-04T21:53:15.964Z,90.13
2018-01-04T21:55:43.465Z,89.65
2018-01-04T21:58:10.981Z,89.87
2018-01-04T22:00:38.487Z,90.07
2018-01-04T22:03:06.009Z,90.11
2018-01-04T22:05:33.529Z,89.84
2018-01-04T22:08:01.039Z,89.83
2018-01-04T22:10:28.556Z,89.96
2018-01-04T22:12:56.065Z,89.71
2018-01-04T22:15:23.577Z,89.78
2018-01-04T22:17:51.094Z,89.82
2018-01-04T22:20:18.609Z,90.34
2018-01-04T22:22:46.116Z,89.89
2018-01-04T22:25:13.635Z,89.91
2018-01-04T22:27:41.141Z,90.05
2018-01-04T22:30:08.653Z,89.94
2018-01-04T22:32:36.170Z,89.59
2018-01-04T22:35:03.673Z,89.80
2018-01-04T22:37:31.169Z,90.00
2018-01-04T22:39:58.676Z,90.23
2018-01-04T22:42:26.181Z,89.90
2018-01-04T22:44:53.684Z,89.91
2018-01-04T22:47:21.199Z,89.78
2018-01-04T22:49:48.726Z,90.06
2018-01-04T22:52:16.236Z,89.77
2018-01-04T22:54:43.742Z,89.92
2018-01-04T22:57:11.306Z,89.69
2018-01-04T22:59:38.780Z,89.53
2018-01-04T23:02:06.295Z,89.86
2018-01-04T23:04:33.801Z,89.86
2018-01-04T23:07:01.326Z,89.71
2018-01-04T23:09:28.866Z,89.72
2018-01-04T23:11:56.405Z,89.58
2018-01-04T23:14:23.920Z,89.76
2018-01-04T23:16:51.481Z,89.67
2018-01-04T23:19:19.069Z,89.96
2018-01-04T23:21:46.597Z,90.38
2018-01-04T23:24:14.101Z,90.20
2018-01-04T23:26:41.609Z,90.05
2018-01-04T23:29:09.123Z,90.08
2018-01-04T23:31:36.634Z,90.15
2018-01-04T23:34:04.139Z,90.36
2018-01-04T23:36:31.654Z,90.43
2018-01-04T23:38:59.167Z,90.25
2018-01-04T23:41:26.721Z,90.34
2018-01-04T23:43:54.231Z,90.04
2018-01-04T23:46:21.742Z,89.79
2018-01-04T23:48:49.247Z,90.08
2018-01-04T23:51:16.748Z,90.01
2018-01-04T23:53:44.253Z,89.86
2018-01-04T23:56:11.757Z,90.14
2018-01-04T23:58:39.260Z,89.80
